sensor_id;sensor_type;location;lat;lon;timestamp;P1;durP1;ratioP1;P2;durP2;ratioP2
8177;SDS011;4130;48.740;9.132;2024-01-16T00:01:28;3.17;;;2.70;;
8177;SDS011;4130;48.740;9.132;2024-01-16T00:03:58;3.47;;;2.50;;
8177;SDS011;4130;48.740;9.132;2024-01-16T00:06:25;4.60;;;2.30;;
8177;SDS011;4130;48.740;9.132;2024-01-16T00:08:53;3.77;;;2.67;;
8177;SDS011;4130;48.740;9.132;2024-01-16T00:11:20;3.97;;;2.37;;
8177;SDS011;4130;48.740;9.132;2024-01-16T00:13:48;5.43;;;2.10;;
8177;SDS011;4130;48.740;9.132;2024-01-16T00:16:15;3.20;;;2.17;;
8177;SDS011;4130;48.740;9.132;2024-01-16T00:18:42;4.00;;;2.50;;
8177;SDS011;4130;48.740;9.132;2024-01-16T00:21:09;3.37;;;2.57;;
8177;SDS011;4130;48.740;9.132;2024-01-16T00:23:37;3.30;;;2.20;;
8177;SDS011;4130;48.740;9.132;2024-01-16T00:26:04;4.53;;;2.63;;
8177;SDS011;4130;48.740;9.132;2024-01-16T00:28:31;6.67;;;2.90;;
8177;SDS011;4130;48.740;9.132;2024-01-16T00:31:00;2.67;;;2.17;;
8177;SDS011;4130;48.740;9.132;2024-01-16T00:33:27;3.20;;;2.37;;
8177;SDS011;4130;48.740;9.132;2024-01-16T00:35:54;3.27;;;2.50;;
8177;SDS011;4130;48.740;9.132;2024-01-16T00:38:21;4.27;;;2.50;;
8177;SDS011;4130;48.740;9.132;2024-01-16T00:40:48;3.90;;;2.47;;
8177;SDS011;4130;48.740;9.132;2024-01-16T00:43:15;3.70;;;2.43;;
8177;SDS011;4130;48.740;9.132;2024-01-16T00:45:42;4.87;;;2.80;;
8177;SDS011;4130;48.740;9.132;2024-01-16T00:48:11;3.10;;;2.40;;
8177;SDS011;4130;48.740;9.132;2024-01-16T00:50:39;4.27;;;2.53;;
8177;SDS011;4130;48.740;9.132;2024-01-16T00:53:06;4.13;;;2.50;;
8177;SDS011;4130;48.740;9.132;2024-01-16T00:55:33;4.80;;;3.10;;
8177;SDS011;4130;48.740;9.132;2024-01-16T00:58:00;4.07;;;2.93;;
8177;SDS011;4130;48.740;9.132;2024-01-16T01:00:28;5.67;;;3.00;;
8177;SDS011;4130;48.740;9.132;2024-01-16T01:02:56;6.60;;;2.53;;
8177;SDS011;4130;48.740;9.132;2024-01-16T01:05:26;4.23;;;2.53;;
8177;SDS011;4130;48.740;9.132;2024-01-16T01:07:54;4.23;;;2.83;;
8177;SDS011;4130;48.740;9.132;2024-01-16T01:10:21;3.57;;;2.70;;
8177;SDS011;4130;48.740;9.132;2024-01-16T01:12:49;2.70;;;2.40;;
8177;SDS011;4130;48.740;9.132;2024-01-16T01:15:17;4.23;;;2.63;;
8177;SDS011;4130;48.740;9.132;2024-01-16T01:17:44;2.70;;;2.07;;
8177;SDS011;4130;48.740;9.132;2024-01-16T01:20:12;5.90;;;2.50;;
8177;SDS011;4130;48.740;9.132;2024-01-16T01:22:41;3.13;;;2.50;;
8177;SDS011;4130;48.740;9.132;2024-01-16T01:25:09;4.10;;;2.67;;
8177;SDS011;4130;48.740;9.132;2024-01-16T01:27:39;5.47;;;2.70;;
8177;SDS011;4130;48.740;9.132;2024-01-16T01:30:07;3.30;;;2.30;;
8177;SDS011;4130;48.740;9.132;2024-01-16T01:32:34;3.63;;;2.57;;
8177;SDS011;4130;48.740;9.132;2024-01-16T01:35:01;3.03;;;2.40;;
8177;SDS011;4130;48.740;9.132;2024-01-16T01:37:29;4.47;;;2.67;;
8177;SDS011;4130;48.740;9.132;2024-01-16T01:39:57;3.43;;;2.63;;
8177;SDS011;4130;48.740;9.132;2024-01-16T01:42:24;3.57;;;2.43;;
8177;SDS011;4130;48.740;9.132;2024-01-16T01:44:52;3.47;;;2.60;;
8177;SDS011;4130;48.740;9.132;2024-01-16T01:47:19;2.53;;;2.07;;
8177;SDS011;4130;48.740;9.132;2024-01-16T01:49:48;3.30;;;2.40;;
8177;SDS011;4130;48.740;9.132;2024-01-16T01:52:15;2.43;;;2.20;;
8177;SDS011;4130;48.740;9.132;2024-01-16T01:54:43;3.07;;;2.10;;
8177;SDS011;4130;48.740;9.132;2024-01-16T01:57:12;4.93;;;2.53;;
8177;SDS011;4130;48.740;9.132;2024-01-16T01:59:40;2.53;;;2.17;;
8177;SDS011;4130;48.740;9.132;2024-01-16T02:02:07;4.40;;;2.67;;
8177;SDS011;4130;48.740;9.132;2024-01-16T02:04:34;3.67;;;2.43;;
8177;SDS011;4130;48.740;9.132;2024-01-16T02:07:05;4.87;;;2.53;;
8177;SDS011;4130;48.740;9.132;2024-01-16T02:09:36;2.93;;;2.37;;
8177;SDS011;4130;48.740;9.132;2024-01-16T02:12:04;5.47;;;2.67;;
8177;SDS011;4130;48.740;9.132;2024-01-16T02:14:34;3.93;;;2.80;;
8177;SDS011;4130;48.740;9.132;2024-01-16T02:17:01;4.93;;;2.73;;
8177;SDS011;4130;48.740;9.132;2024-01-16T02:19:28;5.10;;;2.50;;
8177;SDS011;4130;48.740;9.132;2024-01-16T02:21:57;3.53;;;2.20;;
8177;SDS011;4130;48.740;9.132;2024-01-16T02:24:27;4.10;;;2.53;;
8177;SDS011;4130;48.740;9.132;2024-01-16T02:26:55;5.63;;;2.57;;
8177;SDS011;4130;48.740;9.132;2024-01-16T02:29:22;4.10;;;2.50;;
8177;SDS011;4130;48.740;9.132;2024-01-16T02:31:49;3.80;;;2.60;;
8177;SDS011;4130;48.740;9.132;2024-01-16T02:34:17;3.50;;;2.17;;
8177;SDS011;4130;48.740;9.132;2024-01-16T02:36:44;3.17;;;2.50;;
8177;SDS011;4130;48.740;9.132;2024-01-16T02:39:11;4.17;;;2.33;;
8177;SDS011;4130;48.740;9.132;2024-01-16T02:41:39;2.77;;;2.47;;
8177;SDS011;4130;48.740;9.132;2024-01-16T02:44:06;2.67;;;1.97;;
8177;SDS011;4130;48.740;9.132;2024-01-16T02:46:33;5.30;;;2.17;;
8177;SDS011;4130;48.740;9.132;2024-01-16T02:49:00;3.10;;;2.30;;
8177;SDS011;4130;48.740;9.132;2024-01-16T02:51:27;2.77;;;2.10;;
8177;SDS011;4130;48.740;9.132;2024-01-16T02:53:54;2.77;;;2.17;;
8177;SDS011;4130;48.740;9.132;2024-01-16T02:56:21;4.03;;;2.20;;
8177;SDS011;4130;48.740;9.132;2024-01-16T02:58:50;2.93;;;2.40;;
8177;SDS011;4130;48.740;9.132;2024-01-16T03:01:17;4.13;;;2.60;;
8177;SDS011;4130;48.740;9.132;2024-01-16T03:03:44;3.90;;;2.00;;
8177;SDS011;4130;48.740;9.132;2024-01-16T03:06:20;3.77;;;2.60;;
8177;SDS011;4130;48.740;9.132;2024-01-16T03:08:48;3.87;;;2.67;;
8177;SDS011;4130;48.740;9.132;2024-01-16T03:11:16;2.97;;;2.20;;
8177;SDS011;4130;48.740;9.132;2024-01-16T03:13:43;3.60;;;2.40;;
8177;SDS011;4130;48.740;9.132;2024-01-16T03:16:11;3.63;;;2.47;;
8177;SDS011;4130;48.740;9.132;2024-01-16T03:18:38;3.10;;;2.23;;
8177;SDS011;4130;48.740;9.132;2024-01-16T03:21:06;2.90;;;2.37;;
8177;SDS011;4130;48.740;9.132;2024-01-16T03:23:33;3.37;;;2.23;;
8177;SDS011;4130;48.740;9.132;2024-01-16T03:26:00;2.57;;;2.07;;
8177;SDS011;4130;48.740;9.132;2024-01-16T03:28:29;3.70;;;2.17;;
8177;SDS011;4130;48.740;9.132;2024-01-16T03:30:56;2.30;;;2.10;;
8177;SDS011;4130;48.740;9.132;2024-01-16T03:33:24;4.23;;;2.70;;
8177;SDS011;4130;48.740;9.132;2024-01-16T03:35:51;3.57;;;2.20;;
8177;SDS011;4130;48.740;9.132;2024-01-16T03:38:18;2.73;;;2.33;;
8177;SDS011;4130;48.740;9.132;2024-01-16T03:40:45;2.63;;;1.93;;
8177;SDS011;4130;48.740;9.132;2024-01-16T03:43:13;2.23;;;2.03;;
8177;SDS011;4130;48.740;9.132;2024-01-16T03:45:40;5.00;;;2.30;;
8177;SDS011;4130;48.740;9.132;2024-01-16T03:48:07;4.30;;;2.17;;
8177;SDS011;4130;48.740;9.132;2024-01-16T03:50:35;5.30;;;2.17;;
8177;SDS011;4130;48.740;9.132;2024-01-16T03:53:09;3.10;;;2.23;;
8177;SDS011;4130;48.740;9.132;2024-01-16T03:55:36;3.27;;;2.20;;
8177;SDS011;4130;48.740;9.132;2024-01-16T03:58:03;3.90;;;2.10;;
8177;SDS011;4130;48.740;9.132;2024-01-16T04:00:30;3.27;;;2.30;;
8177;SDS011;4130;48.740;9.132;2024-01-16T04:02:57;3.07;;;2.33;;
8177;SDS011;4130;48.740;9.132;2024-01-16T04:05:23;3.53;;;1.80;;
8177;SDS011;4130;48.740;9.132;2024-01-16T04:07:52;2.93;;;1.83;;
8177;SDS011;4130;48.740;9.132;2024-01-16T04:10:19;4.30;;;2.47;;
8177;SDS011;4130;48.740;9.132;2024-01-16T04:12:47;2.57;;;2.00;;
8177;SDS011;4130;48.740;9.132;2024-01-16T04:15:14;2.33;;;2.10;;
8177;SDS011;4130;48.740;9.132;2024-01-16T04:17:41;3.13;;;2.17;;
8177;SDS011;4130;48.740;9.132;2024-01-16T04:20:09;3.40;;;2.37;;
8177;SDS011;4130;48.740;9.132;2024-01-16T04:22:37;3.30;;;2.47;;
8177;SDS011;4130;48.740;9.132;2024-01-16T04:25:06;5.50;;;1.83;;
8177;SDS011;4130;48.740;9.132;2024-01-16T04:27:33;4.47;;;2.43;;
8177;SDS011;4130;48.740;9.132;2024-01-16T04:30:00;4.13;;;2.23;;
8177;SDS011;4130;48.740;9.132;2024-01-16T04:32:28;5.23;;;2.47;;
8177;SDS011;4130;48.740;9.132;2024-01-16T04:34:55;5.10;;;2.67;;
8177;SDS011;4130;48.740;9.132;2024-01-16T04:37:22;4.40;;;2.60;;
8177;SDS011;4130;48.740;9.132;2024-01-16T04:39:49;2.90;;;2.27;;
8177;SDS011;4130;48.740;9.132;2024-01-16T04:42:17;3.30;;;2.33;;
8177;SDS011;4130;48.740;9.132;2024-01-16T04:44:45;4.90;;;2.43;;
8177;SDS011;4130;48.740;9.132;2024-01-16T04:47:12;3.37;;;2.07;;
8177;SDS011;4130;48.740;9.132;2024-01-16T04:49:40;3.13;;;2.07;;
8177;SDS011;4130;48.740;9.132;2024-01-16T04:52:08;3.93;;;2.10;;
8177;SDS011;4130;48.740;9.132;2024-01-16T04:54:35;2.20;;;1.83;;
8177;SDS011;4130;48.740;9.132;2024-01-16T04:57:02;3.10;;;2.03;;
8177;SDS011;4130;48.740;9.132;2024-01-16T04:59:31;6.80;;;2.37;;
8177;SDS011;4130;48.740;9.132;2024-01-16T05:01:58;3.40;;;2.23;;
8177;SDS011;4130;48.740;9.132;2024-01-16T05:04:25;3.50;;;2.13;;
8177;SDS011;4130;48.740;9.132;2024-01-16T05:06:52;2.00;;;1.70;;
8177;SDS011;4130;48.740;9.132;2024-01-16T05:09:20;3.10;;;2.10;;
8177;SDS011;4130;48.740;9.132;2024-01-16T05:11:47;3.43;;;2.20;;
8177;SDS011;4130;48.740;9.132;2024-01-16T05:14:14;3.30;;;1.80;;
8177;SDS011;4130;48.740;9.132;2024-01-16T05:16:45;3.00;;;2.13;;
8177;SDS011;4130;48.740;9.132;2024-01-16T05:19:13;3.53;;;1.93;;
8177;SDS011;4130;48.740;9.132;2024-01-16T05:21:40;3.07;;;2.10;;
8177;SDS011;4130;48.740;9.132;2024-01-16T05:24:07;2.03;;;1.77;;
8177;SDS011;4130;48.740;9.132;2024-01-16T05:26:34;2.03;;;1.77;;
8177;SDS011;4130;48.740;9.132;2024-01-16T05:29:03;2.77;;;2.00;;
8177;SDS011;4130;48.740;9.132;2024-01-16T05:31:30;5.40;;;2.37;;
8177;SDS011;4130;48.740;9.132;2024-01-16T05:33:58;3.20;;;2.30;;
8177;SDS011;4130;48.740;9.132;2024-01-16T05:36:26;3.93;;;2.13;;
8177;SDS011;4130;48.740;9.132;2024-01-16T05:38:53;4.63;;;2.33;;
8177;SDS011;4130;48.740;9.132;2024-01-16T05:41:23;2.80;;;2.00;;
8177;SDS011;4130;48.740;9.132;2024-01-16T05:43:51;2.70;;;2.20;;
8177;SDS011;4130;48.740;9.132;2024-01-16T05:46:18;2.00;;;1.67;;
8177;SDS011;4130;48.740;9.132;2024-01-16T05:48:45;2.20;;;1.97;;
8177;SDS011;4130;48.740;9.132;2024-01-16T05:51:14;2.33;;;2.00;;
8177;SDS011;4130;48.740;9.132;2024-01-16T05:53:41;3.17;;;2.10;;
8177;SDS011;4130;48.740;9.132;2024-01-16T05:56:08;4.97;;;2.40;;
8177;SDS011;4130;48.740;9.132;2024-01-16T05:58:35;5.87;;;2.50;;
8177;SDS011;4130;48.740;9.132;2024-01-16T06:01:04;2.23;;;1.80;;
8177;SDS011;4130;48.740;9.132;2024-01-16T06:03:31;3.10;;;2.20;;
8177;SDS011;4130;48.740;9.132;2024-01-16T06:05:58;3.17;;;1.70;;
8177;SDS011;4130;48.740;9.132;2024-01-16T06:08:26;2.17;;;1.83;;
8177;SDS011;4130;48.740;9.132;2024-01-16T06:10:54;2.50;;;1.73;;
8177;SDS011;4130;48.740;9.132;2024-01-16T06:13:21;2.50;;;2.00;;
8177;SDS011;4130;48.740;9.132;2024-01-16T06:15:48;2.60;;;2.07;;
8177;SDS011;4130;48.740;9.132;2024-01-16T06:18:15;7.23;;;2.30;;
8177;SDS011;4130;48.740;9.132;2024-01-16T06:20:41;4.90;;;1.93;;
8177;SDS011;4130;48.740;9.132;2024-01-16T06:23:09;3.47;;;2.23;;
8177;SDS011;4130;48.740;9.132;2024-01-16T06:25:38;4.27;;;2.40;;
8177;SDS011;4130;48.740;9.132;2024-01-16T06:28:05;3.83;;;2.17;;
8177;SDS011;4130;48.740;9.132;2024-01-16T06:30:32;2.63;;;2.13;;
8177;SDS011;4130;48.740;9.132;2024-01-16T06:33:00;3.40;;;2.30;;
8177;SDS011;4130;48.740;9.132;2024-01-16T06:35:27;3.17;;;2.13;;
8177;SDS011;4130;48.740;9.132;2024-01-16T06:37:55;2.67;;;1.93;;
8177;SDS011;4130;48.740;9.132;2024-01-16T06:40:23;3.60;;;2.20;;
8177;SDS011;4130;48.740;9.132;2024-01-16T06:42:51;6.60;;;2.10;;
8177;SDS011;4130;48.740;9.132;2024-01-16T06:45:18;2.97;;;2.17;;
8177;SDS011;4130;48.740;9.132;2024-01-16T06:47:45;7.47;;;2.90;;
8177;SDS011;4130;48.740;9.132;2024-01-16T06:50:12;3.33;;;2.00;;
8177;SDS011;4130;48.740;9.132;2024-01-16T06:52:39;2.23;;;2.00;;
8177;SDS011;4130;48.740;9.132;2024-01-16T06:55:06;2.00;;;1.83;;
8177;SDS011;4130;48.740;9.132;2024-01-16T06:57:33;2.73;;;2.10;;
8177;SDS011;4130;48.740;9.132;2024-01-16T07:00:01;5.97;;;2.40;;
8177;SDS011;4130;48.740;9.132;2024-01-16T07:02:32;2.73;;;1.93;;
8177;SDS011;4130;48.740;9.132;2024-01-16T07:04:59;3.47;;;2.43;;
8177;SDS011;4130;48.740;9.132;2024-01-16T07:07:26;2.80;;;2.07;;
8177;SDS011;4130;48.740;9.132;2024-01-16T07:09:53;4.40;;;2.30;;
8177;SDS011;4130;48.740;9.132;2024-01-16T07:12:20;3.20;;;2.20;;
8177;SDS011;4130;48.740;9.132;2024-01-16T07:14:47;2.33;;;1.90;;
8177;SDS011;4130;48.740;9.132;2024-01-16T07:17:16;3.03;;;1.90;;
8177;SDS011;4130;48.740;9.132;2024-01-16T07:19:43;3.63;;;1.90;;
8177;SDS011;4130;48.740;9.132;2024-01-16T07:22:10;4.90;;;2.27;;
8177;SDS011;4130;48.740;9.132;2024-01-16T07:24:39;3.57;;;1.90;;
8177;SDS011;4130;48.740;9.132;2024-01-16T07:27:06;3.00;;;1.70;;
8177;SDS011;4130;48.740;9.132;2024-01-16T07:29:33;3.90;;;2.70;;
8177;SDS011;4130;48.740;9.132;2024-01-16T07:32:00;2.43;;;1.90;;
8177;SDS011;4130;48.740;9.132;2024-01-16T07:34:29;2.20;;;2.00;;
8177;SDS011;4130;48.740;9.132;2024-01-16T07:36:56;4.53;;;1.60;;
8177;SDS011;4130;48.740;9.132;2024-01-16T07:39:22;4.10;;;2.20;;
8177;SDS011;4130;48.740;9.132;2024-01-16T07:41:49;2.73;;;1.90;;
8177;SDS011;4130;48.740;9.132;2024-01-16T07:44:16;2.70;;;1.33;;
8177;SDS011;4130;48.740;9.132;2024-01-16T07:46:43;2.87;;;2.17;;
8177;SDS011;4130;48.740;9.132;2024-01-16T07:49:10;2.07;;;1.77;;
8177;SDS011;4130;48.740;9.132;2024-01-16T07:51:39;2.03;;;1.80;;
8177;SDS011;4130;48.740;9.132;2024-01-16T07:54:07;2.40;;;2.20;;
8177;SDS011;4130;48.740;9.132;2024-01-16T07:56:35;3.43;;;1.93;;
8177;SDS011;4130;48.740;9.132;2024-01-16T07:59:03;1.90;;;1.77;;
8177;SDS011;4130;48.740;9.132;2024-01-16T08:01:30;2.20;;;1.90;;
8177;SDS011;4130;48.740;9.132;2024-01-16T08:06:29;3.97;;;1.97;;
8177;SDS011;4130;48.740;9.132;2024-01-16T08:08:57;2.47;;;1.90;;
8177;SDS011;4130;48.740;9.132;2024-01-16T08:11:24;2.73;;;2.27;;
8177;SDS011;4130;48.740;9.132;2024-01-16T08:13:51;2.60;;;1.50;;
8177;SDS011;4130;48.740;9.132;2024-01-16T08:16:18;5.47;;;2.40;;
8177;SDS011;4130;48.740;9.132;2024-01-16T08:18:45;1.97;;;1.57;;
8177;SDS011;4130;48.740;9.132;2024-01-16T08:21:12;2.27;;;1.60;;
8177;SDS011;4130;48.740;9.132;2024-01-16T08:23:39;2.30;;;1.80;;
8177;SDS011;4130;48.740;9.132;2024-01-16T08:26:08;2.33;;;1.80;;
8177;SDS011;4130;48.740;9.132;2024-01-16T08:28:36;2.43;;;1.83;;
8177;SDS011;4130;48.740;9.132;2024-01-16T08:31:03;2.53;;;1.77;;
8177;SDS011;4130;48.740;9.132;2024-01-16T08:33:30;5.30;;;1.70;;
8177;SDS011;4130;48.740;9.132;2024-01-16T08:35:57;3.20;;;1.80;;
8177;SDS011;4130;48.740;9.132;2024-01-16T08:38:25;3.50;;;2.00;;
8177;SDS011;4130;48.740;9.132;2024-01-16T08:40:52;3.53;;;1.90;;
8177;SDS011;4130;48.740;9.132;2024-01-16T08:43:21;3.00;;;2.00;;
8177;SDS011;4130;48.740;9.132;2024-01-16T08:45:48;3.33;;;2.03;;
8177;SDS011;4130;48.740;9.132;2024-01-16T08:48:15;2.60;;;1.93;;
8177;SDS011;4130;48.740;9.132;2024-01-16T08:50:44;3.93;;;2.00;;
8177;SDS011;4130;48.740;9.132;2024-01-16T08:53:12;3.57;;;1.90;;
8177;SDS011;4130;48.740;9.132;2024-01-16T08:55:39;2.43;;;1.73;;
8177;SDS011;4130;48.740;9.132;2024-01-16T08:58:06;1.47;;;1.37;;
8177;SDS011;4130;48.740;9.132;2024-01-16T09:00:34;3.33;;;1.83;;
8177;SDS011;4130;48.740;9.132;2024-01-16T09:03:11;2.53;;;1.80;;
8177;SDS011;4130;48.740;9.132;2024-01-16T09:05:39;4.77;;;1.93;;
8177;SDS011;4130;48.740;9.132;2024-01-16T09:08:05;2.33;;;1.93;;
8177;SDS011;4130;48.740;9.132;2024-01-16T09:10:33;1.63;;;1.40;;
8177;SDS011;4130;48.740;9.132;2024-01-16T09:13:00;2.00;;;1.80;;
8177;SDS011;4130;48.740;9.132;2024-01-16T09:15:27;2.00;;;1.80;;
8177;SDS011;4130;48.740;9.132;2024-01-16T09:17:56;2.07;;;1.67;;
8177;SDS011;4130;48.740;9.132;2024-01-16T09:20:23;3.07;;;2.00;;
8177;SDS011;4130;48.740;9.132;2024-01-16T09:22:50;3.10;;;1.73;;
8177;SDS011;4130;48.740;9.132;2024-01-16T09:25:17;2.73;;;1.77;;
8177;SDS011;4130;48.740;9.132;2024-01-16T09:27:44;2.63;;;2.00;;
8177;SDS011;4130;48.740;9.132;2024-01-16T09:30:11;2.87;;;2.10;;
8177;SDS011;4130;48.740;9.132;2024-01-16T09:32:38;3.67;;;2.17;;
8177;SDS011;4130;48.740;9.132;2024-01-16T09:35:07;3.33;;;1.73;;
8177;SDS011;4130;48.740;9.132;2024-01-16T09:37:36;3.57;;;1.80;;
8177;SDS011;4130;48.740;9.132;2024-01-16T09:40:05;3.93;;;1.80;;
8177;SDS011;4130;48.740;9.132;2024-01-16T09:42:33;1.97;;;1.77;;
8177;SDS011;4130;48.740;9.132;2024-01-16T09:45:01;2.53;;;1.97;;
8177;SDS011;4130;48.740;9.132;2024-01-16T09:47:28;2.80;;;2.00;;
8177;SDS011;4130;48.740;9.132;2024-01-16T09:49:57;4.80;;;1.90;;
8177;SDS011;4130;48.740;9.132;2024-01-16T09:52:26;1.70;;;1.60;;
8177;SDS011;4130;48.740;9.132;2024-01-16T09:54:53;2.33;;;1.90;;
8177;SDS011;4130;48.740;9.132;2024-01-16T09:57:22;2.70;;;1.97;;
8177;SDS011;4130;48.740;9.132;2024-01-16T09:59:52;3.83;;;2.00;;
8177;SDS011;4130;48.740;9.132;2024-01-16T10:02:19;2.00;;;1.77;;
8177;SDS011;4130;48.740;9.132;2024-01-16T10:04:48;6.67;;;2.30;;
8177;SDS011;4130;48.740;9.132;2024-01-16T10:07:15;2.60;;;2.00;;
8177;SDS011;4130;48.740;9.132;2024-01-16T10:09:44;3.67;;;1.70;;
8177;SDS011;4130;48.740;9.132;2024-01-16T10:12:11;2.00;;;1.70;;
8177;SDS011;4130;48.740;9.132;2024-01-16T10:14:39;2.80;;;2.20;;
8177;SDS011;4130;48.740;9.132;2024-01-16T10:17:11;2.53;;;1.77;;
8177;SDS011;4130;48.740;9.132;2024-01-16T10:19:47;2.83;;;1.83;;
8177;SDS011;4130;48.740;9.132;2024-01-16T10:22:19;2.97;;;2.00;;
8177;SDS011;4130;48.740;9.132;2024-01-16T10:24:49;2.13;;;1.93;;
8177;SDS011;4130;48.740;9.132;2024-01-16T10:27:16;4.43;;;1.93;;
8177;SDS011;4130;48.740;9.132;2024-01-16T10:29:53;2.33;;;1.80;;
8177;SDS011;4130;48.740;9.132;2024-01-16T10:32:27;1.53;;;1.43;;
8177;SDS011;4130;48.740;9.132;2024-01-16T10:35:02;2.77;;;1.50;;
8177;SDS011;4130;48.740;9.132;2024-01-16T10:37:30;2.23;;;1.70;;
8177;SDS011;4130;48.740;9.132;2024-01-16T10:44:04;2.93;;;1.57;;
8177;SDS011;4130;48.740;9.132;2024-01-16T10:46:34;2.10;;;1.60;;
8177;SDS011;4130;48.740;9.132;2024-01-16T10:49:02;4.80;;;1.93;;
8177;SDS011;4130;48.740;9.132;2024-01-16T10:51:31;2.53;;;1.60;;
8177;SDS011;4130;48.740;9.132;2024-01-16T10:53:59;2.47;;;1.47;;
8177;SDS011;4130;48.740;9.132;2024-01-16T10:56:27;2.27;;;1.53;;
8177;SDS011;4130;48.740;9.132;2024-01-16T10:58:57;2.10;;;1.90;;
8177;SDS011;4130;48.740;9.132;2024-01-16T11:01:33;1.77;;;1.53;;
8177;SDS011;4130;48.740;9.132;2024-01-16T11:04:03;3.00;;;1.70;;
8177;SDS011;4130;48.740;9.132;2024-01-16T11:06:31;1.93;;;1.37;;
8177;SDS011;4130;48.740;9.132;2024-01-16T11:09:00;2.97;;;1.60;;
8177;SDS011;4130;48.740;9.132;2024-01-16T11:11:27;6.83;;;1.93;;
8177;SDS011;4130;48.740;9.132;2024-01-16T11:13:55;4.13;;;1.60;;
8177;SDS011;4130;48.740;9.132;2024-01-16T11:16:23;3.03;;;1.67;;
8177;SDS011;4130;48.740;9.132;2024-01-16T11:18:52;4.93;;;1.70;;
8177;SDS011;4130;48.740;9.132;2024-01-16T11:21:20;2.50;;;1.43;;
8177;SDS011;4130;48.740;9.132;2024-01-16T11:23:48;4.33;;;1.80;;
8177;SDS011;4130;48.740;9.132;2024-01-16T11:26:25;1.80;;;1.60;;
8177;SDS011;4130;48.740;9.132;2024-01-16T11:28:57;4.00;;;2.07;;
8177;SDS011;4130;48.740;9.132;2024-01-16T11:31:29;1.50;;;1.40;;
8177;SDS011;4130;48.740;9.132;2024-01-16T11:33:58;2.07;;;1.50;;
8177;SDS011;4130;48.740;9.132;2024-01-16T11:36:42;6.67;;;1.83;;
8177;SDS011;4130;48.740;9.132;2024-01-16T11:39:16;1.57;;;1.33;;
8177;SDS011;4130;48.740;9.132;2024-01-16T11:41:48;3.77;;;1.40;;
8177;SDS011;4130;48.740;9.132;2024-01-16T11:47:04;2.83;;;1.30;;
8177;SDS011;4130;48.740;9.132;2024-01-16T11:49:33;1.63;;;1.37;;
8177;SDS011;4130;48.740;9.132;2024-01-16T11:52:00;2.17;;;1.47;;
8177;SDS011;4130;48.740;9.132;2024-01-16T11:54:28;3.53;;;1.77;;
8177;SDS011;4130;48.740;9.132;2024-01-16T11:57:01;2.20;;;1.30;;
8177;SDS011;4130;48.740;9.132;2024-01-16T11:59:48;1.40;;;1.30;;
8177;SDS011;4130;48.740;9.132;2024-01-16T12:02:29;1.87;;;1.10;;
8177;SDS011;4130;48.740;9.132;2024-01-16T12:05:06;1.30;;;1.20;;
8177;SDS011;4130;48.740;9.132;2024-01-16T12:07:44;3.70;;;1.30;;
8177;SDS011;4130;48.740;9.132;2024-01-16T12:10:15;3.07;;;1.20;;
8177;SDS011;4130;48.740;9.132;2024-01-16T12:12:46;1.63;;;1.40;;
8177;SDS011;4130;48.740;9.132;2024-01-16T12:15:15;1.67;;;1.40;;
8177;SDS011;4130;48.740;9.132;2024-01-16T12:17:55;1.40;;;1.30;;
8177;SDS011;4130;48.740;9.132;2024-01-16T12:20:25;2.30;;;1.50;;
8177;SDS011;4130;48.740;9.132;2024-01-16T12:22:57;4.43;;;1.30;;
8177;SDS011;4130;48.740;9.132;2024-01-16T12:25:26;2.47;;;1.23;;
8177;SDS011;4130;48.740;9.132;2024-01-16T12:27:55;1.53;;;1.10;;
8177;SDS011;4130;48.740;9.132;2024-01-16T12:30:23;1.40;;;1.30;;
8177;SDS011;4130;48.740;9.132;2024-01-16T12:33:03;2.03;;;1.60;;
8177;SDS011;4130;48.740;9.132;2024-01-16T12:35:35;3.23;;;1.57;;
8177;SDS011;4130;48.740;9.132;2024-01-16T12:38:04;5.70;;;1.80;;
8177;SDS011;4130;48.740;9.132;2024-01-16T12:40:35;1.67;;;1.40;;
8177;SDS011;4130;48.740;9.132;2024-01-16T12:43:04;1.50;;;1.30;;
8177;SDS011;4130;48.740;9.132;2024-01-16T12:45:31;1.80;;;1.23;;
8177;SDS011;4130;48.740;9.132;2024-01-16T12:47:59;1.47;;;1.37;;
8177;SDS011;4130;48.740;9.132;2024-01-16T12:50:28;1.60;;;1.50;;
8177;SDS011;4130;48.740;9.132;2024-01-16T12:53:04;1.90;;;1.30;;
8177;SDS011;4130;48.740;9.132;2024-01-16T12:55:33;2.20;;;1.40;;
8177;SDS011;4130;48.740;9.132;2024-01-16T12:58:12;3.40;;;1.60;;
8177;SDS011;4130;48.740;9.132;2024-01-16T13:00:44;2.03;;;1.40;;
8177;SDS011;4130;48.740;9.132;2024-01-16T13:03:15;1.80;;;1.30;;
8177;SDS011;4130;48.740;9.132;2024-01-16T13:08:22;1.60;;;1.50;;
8177;SDS011;4130;48.740;9.132;2024-01-16T13:13:45;2.30;;;1.57;;
8177;SDS011;4130;48.740;9.132;2024-01-16T13:16:13;3.93;;;1.50;;
8177;SDS011;4130;48.740;9.132;2024-01-16T13:18:42;1.67;;;1.40;;
8177;SDS011;4130;48.740;9.132;2024-01-16T13:21:10;2.80;;;1.60;;
8177;SDS011;4130;48.740;9.132;2024-01-16T13:23:39;2.33;;;1.60;;
8177;SDS011;4130;48.740;9.132;2024-01-16T13:26:08;1.53;;;1.33;;
8177;SDS011;4130;48.740;9.132;2024-01-16T13:28:36;1.80;;;1.33;;
8177;SDS011;4130;48.740;9.132;2024-01-16T13:31:04;3.23;;;1.43;;
8177;SDS011;4130;48.740;9.132;2024-01-16T13:33:38;1.67;;;1.20;;
8177;SDS011;4130;48.740;9.132;2024-01-16T13:36:41;3.00;;;1.43;;
8177;SDS011;4130;48.740;9.132;2024-01-16T13:42:16;2.80;;;1.27;;
8177;SDS011;4130;48.740;9.132;2024-01-16T13:44:46;3.07;;;1.40;;
8177;SDS011;4130;48.740;9.132;2024-01-16T13:47:13;1.30;;;1.20;;
8177;SDS011;4130;48.740;9.132;2024-01-16T13:49:44;2.07;;;1.23;;
8177;SDS011;4130;48.740;9.132;2024-01-16T13:52:12;3.13;;;1.50;;
8177;SDS011;4130;48.740;9.132;2024-01-16T13:54:42;1.67;;;1.30;;
8177;SDS011;4130;48.740;9.132;2024-01-16T13:57:09;2.40;;;1.47;;
8177;SDS011;4130;48.740;9.132;2024-01-16T13:59:39;1.70;;;1.23;;
8177;SDS011;4130;48.740;9.132;2024-01-16T14:02:10;1.20;;;1.10;;
8177;SDS011;4130;48.740;9.132;2024-01-16T14:04:37;2.03;;;1.40;;
8177;SDS011;4130;48.740;9.132;2024-01-16T14:07:12;1.10;;;1.00;;
8177;SDS011;4130;48.740;9.132;2024-01-16T14:09:49;1.27;;;1.17;;
8177;SDS011;4130;48.740;9.132;2024-01-16T14:12:19;2.43;;;1.00;;
8177;SDS011;4130;48.740;9.132;2024-01-16T14:14:47;1.67;;;1.30;;
8177;SDS011;4130;48.740;9.132;2024-01-16T14:17:14;2.03;;;0.90;;
8177;SDS011;4130;48.740;9.132;2024-01-16T14:19:41;1.97;;;0.90;;
8177;SDS011;4130;48.740;9.132;2024-01-16T14:22:09;1.00;;;1.00;;
8177;SDS011;4130;48.740;9.132;2024-01-16T14:25:24;1.50;;;1.40;;
8177;SDS011;4130;48.740;9.132;2024-01-16T14:27:56;1.27;;;1.17;;
8177;SDS011;4130;48.740;9.132;2024-01-16T14:30:24;1.43;;;1.33;;
8177;SDS011;4130;48.740;9.132;2024-01-16T14:32:53;1.43;;;1.33;;
8177;SDS011;4130;48.740;9.132;2024-01-16T14:35:22;2.10;;;1.40;;
8177;SDS011;4130;48.740;9.132;2024-01-16T14:37:50;2.77;;;1.60;;
8177;SDS011;4130;48.740;9.132;2024-01-16T14:40:18;1.73;;;1.43;;
8177;SDS011;4130;48.740;9.132;2024-01-16T14:42:52;1.23;;;1.13;;
8177;SDS011;4130;48.740;9.132;2024-01-16T14:45:21;1.63;;;1.40;;
8177;SDS011;4130;48.740;9.132;2024-01-16T14:47:49;2.57;;;1.40;;
8177;SDS011;4130;48.740;9.132;2024-01-16T14:50:18;3.23;;;1.50;;
8177;SDS011;4130;48.740;9.132;2024-01-16T14:52:49;1.50;;;1.40;;
8177;SDS011;4130;48.740;9.132;2024-01-16T14:55:19;1.80;;;1.60;;
8177;SDS011;4130;48.740;9.132;2024-01-16T14:57:47;2.93;;;1.47;;
8177;SDS011;4130;48.740;9.132;2024-01-16T15:00:22;1.73;;;1.60;;
8177;SDS011;4130;48.740;9.132;2024-01-16T15:02:52;2.93;;;1.77;;
8177;SDS011;4130;48.740;9.132;2024-01-16T15:08:41;3.57;;;1.43;;
8177;SDS011;4130;48.740;9.132;2024-01-16T15:11:08;1.40;;;1.30;;
8177;SDS011;4130;48.740;9.132;2024-01-16T15:13:35;1.17;;;1.10;;
8177;SDS011;4130;48.740;9.132;2024-01-16T15:16:04;1.83;;;1.33;;
8177;SDS011;4130;48.740;9.132;2024-01-16T15:18:33;1.37;;;1.27;;
8177;SDS011;4130;48.740;9.132;2024-01-16T15:21:02;1.57;;;1.40;;
8177;SDS011;4130;48.740;9.132;2024-01-16T15:23:31;4.83;;;1.67;;
8177;SDS011;4130;48.740;9.132;2024-01-16T15:25:58;7.23;;;1.60;;
8177;SDS011;4130;48.740;9.132;2024-01-16T15:28:28;4.00;;;1.50;;
8177;SDS011;4130;48.740;9.132;2024-01-16T15:30:56;2.33;;;1.80;;
8177;SDS011;4130;48.740;9.132;2024-01-16T15:33:25;2.87;;;1.80;;
8177;SDS011;4130;48.740;9.132;2024-01-16T15:35:52;3.17;;;1.23;;
8177;SDS011;4130;48.740;9.132;2024-01-16T15:38:19;1.50;;;1.40;;
8177;SDS011;4130;48.740;9.132;2024-01-16T15:40:46;1.47;;;1.10;;
8177;SDS011;4130;48.740;9.132;2024-01-16T15:43:15;1.67;;;1.43;;
8177;SDS011;4130;48.740;9.132;2024-01-16T15:45:45;4.27;;;2.10;;